TimeEST,TemperatureF,Dew PointF,Humidity,Sea Level PressureIn,VisibilityMPH,Wind Direction,Wind SpeedMPH,Gust SpeedMPH,PrecipitationIn,Events,Conditions,WindDirDegrees,DateUTC
12:35 AM,32.0,24.8,75,30.03,10.0,West,15.0,-,N/A,,Overcast,260,2013-01-17 05:35:00
12:53 AM,32.0,24.1,73,30.06,10.0,West,13.8,-,N/A,,Overcast,260,2013-01-17 05:53:00
1:16 AM,32.0,24.8,75,30.05,10.0,West,12.7,-,N/A,,Overcast,260,2013-01-17 06:16:00
1:53 AM,32.0,24.1,73,30.09,10.0,WSW,10.4,-,N/A,,Overcast,250,2013-01-17 06:53:00
2:53 AM,32.0,24.1,73,30.10,10.0,SW,8.1,-,N/A,,Overcast,230,2013-01-17 07:53:00
3:53 AM,32.0,25.0,75,30.11,9.0,WSW,8.1,-,N/A,,Overcast,240,2013-01-17 08:53:00
4:53 AM,32.0,25.0,75,30.12,9.0,SW,6.9,-,N/A,,Overcast,230,2013-01-17 09:53:00
5:53 AM,32.0,26.1,79,30.13,8.0,West,6.9,-,N/A,,Overcast,270,2013-01-17 10:53:00
6:53 AM,32.0,26.1,79,30.15,8.0,SW,4.6,-,N/A,,Overcast,220,2013-01-17 11:53:00
7:34 AM,30.2,24.8,80,30.13,8.0,SW,4.6,-,N/A,,Scattered Clouds,230,2013-01-17 12:34:00
7:53 AM,30.0,25.0,82,30.18,8.0,WSW,4.6,-,N/A,,Clear,250,2013-01-17 12:53:00
8:53 AM,30.9,25.0,79,30.20,6.0,SW,5.8,-,N/A,,Haze,230,2013-01-17 13:53:00
9:53 AM,30.9,26.1,82,30.22,6.0,SW,9.2,-,N/A,,Haze,230,2013-01-17 14:53:00
10:51 AM,33.8,26.6,75,30.20,6.0,WSW,8.1,-,N/A,,Haze,240,2013-01-17 15:51:00
10:53 AM,33.1,27.0,78,30.23,6.0,WSW,8.1,-,N/A,,Haze,240,2013-01-17 15:53:00
11:15 AM,33.8,26.6,75,30.20,6.0,WSW,6.9,-,N/A,,Haze,240,2013-01-17 16:15:00
11:53 AM,37.0,28.9,73,30.21,8.0,WSW,4.6,-,N/A,,Partly Cloudy,240,2013-01-17 16:53:00
12:07 PM,35.6,26.6,70,30.17,9.0,NW,8.1,-,N/A,,Mostly Cloudy,320,2013-01-17 17:07:00
12:53 PM,36.0,26.1,67,30.18,10.0,NW,9.2,-,N/A,,Mostly Cloudy,320,2013-01-17 17:53:00
1:13 PM,35.6,26.6,70,30.14,10.0,NW,9.2,-,N/A,,Scattered Clouds,310,2013-01-17 18:13:00
1:44 PM,37.4,26.6,65,30.13,10.0,NNW,12.7,-,N/A,,Mostly Cloudy,330,2013-01-17 18:44:00
1:53 PM,36.0,27.0,70,30.15,10.0,NW,12.7,-,N/A,,Scattered Clouds,310,2013-01-17 18:53:00
2:53 PM,37.9,28.0,68,30.15,10.0,WNW,15.0,18.4,N/A,,Scattered Clouds,300,2013-01-17 19:53:00
3:53 PM,37.9,28.0,68,30.16,10.0,NW,11.5,-,N/A,,Partly Cloudy,320,2013-01-17 20:53:00
4:53 PM,37.0,24.1,59,30.18,10.0,NW,12.7,20.7,N/A,,Clear,320,2013-01-17 21:53:00
5:53 PM,34.0,21.9,61,30.20,10.0,NW,15.0,-,N/A,,Clear,310,2013-01-17 22:53:00
6:53 PM,30.9,21.0,67,30.25,10.0,NW,15.0,-,N/A,,Clear,310,2013-01-17 23:53:00
7:53 PM,28.9,19.0,67,30.30,10.0,NW,15.0,-,N/A,,Clear,320,2013-01-18 00:53:00
8:53 PM,26.1,16.0,66,30.32,10.0,NW,17.3,24.2,N/A,,Clear,320,2013-01-18 01:53:00
9:53 PM,24.1,14.0,65,30.35,10.0,NNW,13.8,-,N/A,,Clear,330,2013-01-18 02:53:00
10:53 PM,23.0,12.0,63,30.36,10.0,NW,9.2,-,N/A,,Clear,310,2013-01-18 03:53:00
11:53 PM,21.9,12.9,68,30.38,10.0,WNW,6.9,-,N/A,,Clear,290,2013-01-18 04:53:00